Portada
METAR-TAF:

METAR-TAF

Aeropuertos :

Aeropuerto de Bérgamo-Orio al Serio

Bérgamo, Italia

latitud: 45-40N, longitud: 009-42E, altitud: 238 m

Observación

El informe se hizo hace 34 minutos, a las 17:50 UTC
Viento 1 kt con dirección variable
Temperatura 23°C
Humedad 61%
Presión 1005 hPa
Visibilidad 10 km o más
Escasas nubes a una altura de 3000 ft, Cumulonimbus.
Cielo nuboso a una altura de 5500 ft

METAR: LIME 061750Z VRB01KT 9999 FEW030CB BKN055 23/15 Q1005 TEMPO TSRA

Hora: 20:24 (18:24 UTC)

Pronóstico

El informe se hizo hace 1 hora y 24 minutos, a las 17:00 UTC
Pronóstico válido del 06 a las 18 UTC al 07 a las 18 UTC
Viento 5 kt con dirección variable
Visibilidad 10 km o más
Cielo nuboso a una altura de 4000 ft
Temporalmente
del 06 a las 18 UTC al 06 a las 21 UTC
tormenta, lluvia
Temporalmente
del 06 a las 18 UTC al 07 a las 18 UTC
tormenta, lluvia

TAF: LIME 061700Z 0618/0718 VRB05KT 9999 BKN040 TEMPO 0618/0621 TSRA TEMPO 0618/0718 TSRA

Observaciones y pronósticos meteorológicos de más de 4000 aeropuertos (mensajes METAR y TAF).

Los puntos amarillos y rojos representan las estaciones disponibles.

Ponga el ratón en el punto deseado para ver el nombre de la estación.

Haga clic para ver las observaciones y los pronósticos meteorológicos.

Para cambiar el mapa : haga clic en los botones verdes con una cruz de color negro para hacer un zoom, en el botón verde con un guión para alejar o en las flechas verdes para mapas adyacentes.


METAR-TAF: